Time;durP1;ratioP1;P1;durP2;ratioP2;P2;SDS_P1;SDS_P2;PMS_P1;PMS_P2;Temp;Humidity;BMP_temperature;BMP_pressure;BME280_temperature;BME280_humidity;BME280_pressure;Samples;Min_cycle;Max_cycle;Signal;HPM_P1;HPM_P2
2022/08/05 00:00:40;;;;;;;6.30;4.85;;;;;;;;;;2049992;28;20233;-66
2022/08/05 00:01:40;;;;;;;7.80;4.70;;;;;;;;;;2050223;29;20179;-66
2022/08/05 00:02:40;;;;;;;7.13;4.30;;;;;;;;;;2050627;29;20182;-66
2022/08/05 00:03:41;;;;;;;4.45;4.05;;;;;;;;;;2050734;28;20206;-65
2022/08/05 00:04:41;;;;;;;10.02;4.85;;;;;;;;;;2049912;28;20175;-67
2022/08/05 00:05:42;;;;;;;6.43;4.47;;;;;;;;;;2051048;28;20179;-64
2022/08/05 00:06:42;;;;;;;4.93;4.00;;;;;;;;;;2050122;29;20178;-63
2022/08/05 00:07:42;;;;;;;5.25;3.97;;;;;;;;;;2049963;28;20199;-65
2022/08/05 00:08:43;;;;;;;6.20;4.22;;;;;;;;;;2058000;28;20349;-65
2022/08/05 00:09:43;;;;;;;5.00;4.43;;;;;;;;;;2050072;29;20183;-67
2022/08/05 00:10:44;;;;;;;7.63;4.88;;;;;;;;;;2050151;28;20183;-65
2022/08/05 00:11:44;;;;;;;6.72;4.78;;;;;;;;;;2050639;28;20175;-63
2022/08/05 00:12:44;;;;;;;4.80;4.35;;;;;;;;;;2050252;29;20170;-63
2022/08/05 00:13:45;;;;;;;9.15;5.05;;;;;;;;;;2050219;29;20556;-65
2022/08/05 00:14:45;;;;;;;6.60;5.25;;;;;;;;;;2049836;29;20672;-65
2022/08/05 00:15:45;;;;;;;7.63;4.97;;;;;;;;;;2050907;28;20219;-64
2022/08/05 00:16:46;;;;;;;6.78;5.13;;;;;;;;;;2050907;28;20171;-64
2022/08/05 00:17:46;;;;;;;7.35;4.70;;;;;;;;;;2050863;28;20215;-64
2022/08/05 00:18:47;;;;;;;6.28;5.10;;;;;;;;;;2050460;28;20755;-64
2022/08/05 00:19:47;;;;;;;10.15;5.45;;;;;;;;;;2050652;28;20185;-65
2022/08/05 00:20:48;;;;;;;9.38;5.47;;;;;;;;;;2050530;28;20265;-65
2022/08/05 00:21:49;;;;;;;5.45;4.90;;;;;;;;;;2050689;28;20262;-64
2022/08/05 00:22:49;;;;;;;8.05;5.78;;;;;;;;;;2054523;28;20550;-65
2022/08/05 00:23:49;;;;;;;6.90;5.20;;;;;;;;;;2058445;28;20663;-66
2022/08/05 00:24:50;;;;;;;6.80;5.90;;;;;;;;;;2057522;28;20174;-65
2022/08/05 00:25:50;;;;;;;8.93;5.45;;;;;;;;;;2057880;28;20170;-65
2022/08/05 00:26:51;;;;;;;6.03;4.40;;;;;;;;;;2058290;28;20174;-65
2022/08/05 00:27:52;;;;;;;9.60;5.32;;;;;;;;;;2057785;28;20245;-65
2022/08/05 00:28:52;;;;;;;6.05;4.93;;;;;;;;;;2057996;28;20187;-65
2022/08/05 00:29:52;;;;;;;6.68;5.10;;;;;;;;;;2058493;28;20217;-65
2022/08/05 00:30:53;;;;;;;8.98;4.88;;;;;;;;;;2057658;28;20179;-66
2022/08/05 00:31:54;;;;;;;6.90;4.97;;;;;;;;;;2058382;28;20155;-65
2022/08/05 00:32:54;;;;;;;6.05;4.65;;;;;;;;;;2058029;28;20689;-64
2022/08/05 00:33:54;;;;;;;8.73;6.60;;;;;;;;;;2057735;28;20166;-65
2022/08/05 00:34:54;;;;;;;5.40;4.90;;;;;;;;;;2057308;28;20171;-64
2022/08/05 00:35:55;;;;;;;9.57;7.95;;;;;;;;;;2057659;28;20218;-65
2022/08/05 00:36:55;;;;;;;7.70;6.45;;;;;;;;;;2057784;28;20697;-65
2022/08/05 00:37:55;;;;;;;12.63;9.45;;;;;;;;;;2058069;28;20166;-64
2022/08/05 00:38:56;;;;;;;14.70;11.40;;;;;;;;;;2058693;28;20535;-66
2022/08/05 00:39:56;;;;;;;8.82;7.00;;;;;;;;;;2058230;28;20174;-65
2022/08/05 00:40:57;;;;;;;9.27;7.13;;;;;;;;;;2058312;28;20155;-65
2022/08/05 00:41:58;;;;;;;10.05;7.35;;;;;;;;;;2058070;28;20171;-66
2022/08/05 00:43:00;;;;;;;12.38;9.52;;;;;;;;;;2058592;28;20198;-64
2022/08/05 00:44:00;;;;;;;9.73;7.20;;;;;;;;;;2058813;28;20196;-63
2022/08/05 00:45:02;;;;;;;7.45;6.68;;;;;;;;;;2060226;28;20284;-66
2022/08/05 00:46:03;;;;;;;10.18;6.70;;;;;;;;;;2060005;28;20166;-66
2022/08/05 00:47:03;;;;;;;12.23;7.47;;;;;;;;;;2059920;28;20248;-66
2022/08/05 00:48:04;;;;;;;9.60;7.63;;;;;;;;;;2061496;28;20159;-64
2022/08/05 00:49:04;;;;;;;13.55;7.90;;;;;;;;;;2059393;28;20622;-64
2022/08/05 00:50:05;;;;;;;11.45;7.63;;;;;;;;;;2058466;28;20170;-65
2022/08/05 00:51:05;;;;;;;7.75;7.03;;;;;;;;;;2050691;29;20167;-64
2022/08/05 00:52:05;;;;;;;11.27;8.07;;;;;;;;;;2050274;28;20181;-66
2022/08/05 00:53:06;;;;;;;10.60;7.65;;;;;;;;;;2050267;28;20159;-65
2022/08/05 00:54:06;;;;;;;11.25;7.65;;;;;;;;;;2049295;28;20182;-65
2022/08/05 00:55:07;;;;;;;9.80;7.68;;;;;;;;;;2050320;29;20167;-65
2022/08/05 00:56:07;;;;;;;7.93;6.85;;;;;;;;;;2050597;28;20303;-65
2022/08/05 00:57:07;;;;;;;7.82;6.60;;;;;;;;;;2055435;28;20594;-66
2022/08/05 00:58:08;;;;;;;10.10;6.80;;;;;;;;;;2056416;28;20176;-64
2022/08/05 00:59:09;;;;;;;9.30;7.68;;;;;;;;;;2058512;28;20174;-64
2022/08/05 01:00:10;;;;;;;10.38;7.32;;;;;;;;;;2055053;28;20179;-64
2022/08/05 01:01:10;;;;;;;11.65;7.82;;;;;;;;;;2050601;28;20163;-65
2022/08/05 01:02:11;;;;;;;7.72;6.88;;;;;;;;;;2049825;29;20278;-65
2022/08/05 01:03:11;;;;;;;11.50;7.45;;;;;;;;;;2049865;29;20249;-65
2022/08/05 01:04:11;;;;;;;8.68;7.00;;;;;;;;;;2049347;29;20174;-64
2022/08/05 01:05:12;;;;;;;8.25;7.35;;;;;;;;;;2049601;29;20174;-62
2022/08/05 01:06:12;;;;;;;9.30;8.07;;;;;;;;;;2050524;29;20209;-65
2022/08/05 01:07:12;;;;;;;9.50;7.32;;;;;;;;;;2052780;29;20186;-64
2022/08/05 01:08:13;;;;;;;10.65;7.53;;;;;;;;;;2053267;28;20222;-64
2022/08/05 01:09:13;;;;;;;8.02;7.22;;;;;;;;;;2052663;28;20194;-65
2022/08/05 01:10:16;;;;;;;11.07;7.60;;;;;;;;;;2055889;29;20218;-64
2022/08/05 01:11:28;;;;;;;12.85;7.90;;;;;;;;;;2056936;28;20190;-63
2022/08/05 01:12:29;;;;;;;8.73;7.47;;;;;;;;;;2056731;29;20175;-64
2022/08/05 01:13:38;;;;;;;12.48;7.90;;;;;;;;;;2056016;29;20183;-63
2022/08/05 01:14:52;;;;;;;10.23;7.88;;;;;;;;;;2056168;29;20167;-63
2022/08/05 01:15:57;;;;;;;8.90;8.00;;;;;;;;;;2057114;28;20203;-63
2022/08/05 01:17:05;;;;;;;11.55;8.32;;;;;;;;;;2056665;28;20191;-64
2022/08/05 01:18:08;;;;;;;9.10;7.00;;;;;;;;;;2057267;28;20163;-64
2022/08/05 01:19:14;;;;;;;13.38;8.55;;;;;;;;;;2056384;28;20183;-65
2022/08/05 01:20:34;;;;;;;13.48;7.45;;;;;;;;;;2055343;28;20294;-65
2022/08/05 01:21:37;;;;;;;10.27;7.93;;;;;;;;;;2057053;29;20187;-64
2022/08/05 01:22:58;;;;;;;8.80;7.70;;;;;;;;;;2056631;28;20175;-64
2022/08/05 01:24:37;;;;;;;8.00;7.20;;;;;;;;;;2056740;28;20171;-63
2022/08/05 01:25:48;;;;;;;8.70;7.90;;;;;;;;;;2043211;29;20247;-64
2022/08/05 01:27:07;;;;;;;11.25;8.32;;;;;;;;;;2043876;29;20168;-64
2022/08/05 01:28:14;;;;;;;10.35;8.20;;;;;;;;;;2042753;29;20570;-64
2022/08/05 01:29:25;;;;;;;11.02;8.10;;;;;;;;;;2042400;29;20199;-64
2022/08/05 01:30:27;;;;;;;12.50;8.80;;;;;;;;;;2042217;29;20641;-63
2022/08/05 01:31:28;;;;;;;15.48;7.90;;;;;;;;;;2037972;29;20274;-65
2022/08/05 01:32:30;;;;;;;9.77;8.77;;;;;;;;;;2043072;29;20172;-63
2022/08/05 01:33:33;;;;;;;10.30;8.50;;;;;;;;;;2051765;28;20675;-64
2022/08/05 01:34:33;;;;;;;9.52;8.25;;;;;;;;;;2050811;29;20179;-64
2022/08/05 01:35:34;;;;;;;10.25;8.90;;;;;;;;;;2049704;28;20274;-64
2022/08/05 01:36:37;;;;;;;9.25;7.90;;;;;;;;;;2051522;28;20178;-65
2022/08/05 01:37:41;;;;;;;10.68;9.48;;;;;;;;;;2051031;28;20639;-63
2022/08/05 01:38:42;;;;;;;11.30;8.73;;;;;;;;;;2052522;28;20198;-62
2022/08/05 01:39:44;;;;;;;12.02;8.75;;;;;;;;;;2051782;28;20187;-63
2022/08/05 01:40:45;;;;;;;10.20;9.00;;;;;;;;;;2051316;28;20166;-66
2022/08/05 01:41:46;;;;;;;10.90;8.88;;;;;;;;;;2050660;28;20217;-65
2022/08/05 01:42:48;;;;;;;9.57;8.52;;;;;;;;;;2051589;28;20177;-64
2022/08/05 01:43:49;;;;;;;10.77;9.65;;;;;;;;;;2051217;28;20221;-64
2022/08/05 01:44:51;;;;;;;9.73;8.50;;;;;;;;;;2050764;28;20644;-64
2022/08/05 01:45:51;;;;;;;11.02;9.13;;;;;;;;;;2050557;28;20679;-64
2022/08/05 01:46:52;;;;;;;11.50;9.25;;;;;;;;;;2054142;28;20172;-64
2022/08/05 01:47:54;;;;;;;11.27;9.52;;;;;;;;;;2053018;28;20159;-64
2022/08/05 01:48:55;;;;;;;12.52;9.10;;;;;;;;;;2050235;28;20198;-64
2022/08/05 01:49:56;;;;;;;11.93;8.52;;;;;;;;;;2050302;28;20222;-64
2022/08/05 01:50:57;;;;;;;9.80;8.10;;;;;;;;;;2049619;29;20262;-64
2022/08/05 01:51:59;;;;;;;10.57;8.88;;;;;;;;;;2050639;29;20167;-64
2022/08/05 01:53:01;;;;;;;10.68;8.57;;;;;;;;;;2051405;28;20163;-64
2022/08/05 01:54:04;;;;;;;11.30;8.55;;;;;;;;;;2050200;28;20296;-64
2022/08/05 01:55:06;;;;;;;9.98;8.18;;;;;;;;;;2051373;28;20155;-66
2022/08/05 01:56:08;;;;;;;10.93;7.32;;;;;;;;;;2051184;28;20165;-63
2022/08/05 01:57:08;;;;;;;7.82;7.13;;;;;;;;;;2049836;28;20245;-63
2022/08/05 01:58:09;;;;;;;12.27;7.68;;;;;;;;;;2049965;28;20167;-64
2022/08/05 01:59:12;;;;;;;8.50;7.63;;;;;;;;;;2050047;28;20179;-64
2022/08/05 02:00:13;;;;;;;11.10;7.78;;;;;;;;;;2049749;28;20544;-64
2022/08/05 02:01:13;;;;;;;9.25;8.18;;;;;;;;;;2049178;29;20171;-64
2022/08/05 02:02:14;;;;;;;12.45;7.80;;;;;;;;;;2041289;29;20179;-64
2022/08/05 02:03:17;;;;;;;10.05;7.40;;;;;;;;;;2041305;29;20317;-65
2022/08/05 02:04:18;;;;;;;12.50;7.82;;;;;;;;;;2049508;29;20186;-65
2022/08/05 02:05:19;;;;;;;12.13;8.48;;;;;;;;;;2049581;29;20291;-64
2022/08/05 02:06:20;;;;;;;10.23;7.45;;;;;;;;;;2048962;29;20262;-65
2022/08/05 02:07:20;;;;;;;9.75;8.73;;;;;;;;;;2049803;28;20621;-63
2022/08/05 02:08:21;;;;;;;12.70;9.15;;;;;;;;;;2048660;29;20695;-65
2022/08/05 02:09:21;;;;;;;12.50;9.10;;;;;;;;;;2048877;29;20186;-63
2022/08/05 02:10:21;;;;;;;11.88;9.75;;;;;;;;;;2049591;29;20163;-64
2022/08/05 02:11:22;;;;;;;11.75;9.90;;;;;;;;;;2049603;28;20179;-63
2022/08/05 02:12:37;;;;;;;10.73;9.07;;;;;;;;;;2048645;28;20573;-63
2022/08/05 02:13:48;;;;;;;14.38;9.05;;;;;;;;;;2046385;29;20178;-63
2022/08/05 02:14:51;;;;;;;16.65;8.70;;;;;;;;;;2048108;28;20264;-64
2022/08/05 02:16:00;;;;;;;10.60;9.52;;;;;;;;;;2049184;29;20265;-65
2022/08/05 02:17:06;;;;;;;13.55;9.52;;;;;;;;;;2047034;29;20622;-63
2022/08/05 02:18:10;;;;;;;11.82;8.80;;;;;;;;;;2049491;28;20175;-64
2022/08/05 02:19:10;;;;;;;10.82;8.75;;;;;;;;;;2049465;28;20179;-64
2022/08/05 02:20:13;;;;;;;11.60;8.68;;;;;;;;;;2049377;28;20189;-63
2022/08/05 02:21:16;;;;;;;12.73;9.15;;;;;;;;;;2049317;28;20234;-64
2022/08/05 02:22:18;;;;;;;11.20;9.60;;;;;;;;;;2049659;28;20183;-63
2022/08/05 02:23:21;;;;;;;12.57;9.02;;;;;;;;;;2046764;29;20202;-64
2022/08/05 02:24:23;;;;;;;13.88;8.95;;;;;;;;;;2048545;28;20207;-64
2022/08/05 02:25:29;;;;;;;11.40;8.88;;;;;;;;;;2049789;28;20237;-64
2022/08/05 02:26:38;;;;;;;13.30;9.93;;;;;;;;;;2057243;28;20162;-64
2022/08/05 02:27:40;;;;;;;12.10;9.48;;;;;;;;;;2053327;28;20432;-64
2022/08/05 02:28:42;;;;;;;12.77;8.95;;;;;;;;;;2049210;28;20208;-63
2022/08/05 02:29:43;;;;;;;10.50;9.35;;;;;;;;;;2049573;28;20200;-64
2022/08/05 02:30:45;;;;;;;10.77;9.52;;;;;;;;;;2049282;28;20303;-65
2022/08/05 02:31:47;;;;;;;12.82;9.32;;;;;;;;;;2049423;28;20171;-63
2022/08/05 02:32:49;;;;;;;12.65;9.30;;;;;;;;;;2056874;28;20182;-63
2022/08/05 02:34:03;;;;;;;11.80;8.73;;;;;;;;;;2056502;28;20175;-63
2022/08/05 02:35:05;;;;;;;10.00;9.00;;;;;;;;;;2047304;29;20302;-63
2022/08/05 02:36:12;;;;;;;11.57;9.15;;;;;;;;;;2049419;28;20171;-63
2022/08/05 02:37:13;;;;;;;11.32;8.93;;;;;;;;;;2048624;29;20327;-64
2022/08/05 02:38:14;;;;;;;9.90;8.88;;;;;;;;;;2048534;29;20213;-65
2022/08/05 02:39:15;;;;;;;9.40;8.40;;;;;;;;;;2049137;28;20182;-65
2022/08/05 02:40:17;;;;;;;8.75;7.78;;;;;;;;;;2049189;28;20213;-65
2022/08/05 02:41:18;;;;;;;10.63;8.73;;;;;;;;;;2049215;28;20266;-64
2022/08/05 02:42:19;;;;;;;10.48;8.50;;;;;;;;;;2046738;29;20675;-65
2022/08/05 02:43:20;;;;;;;11.73;8.52;;;;;;;;;;2049069;28;20194;-63
2022/08/05 02:44:22;;;;;;;12.27;8.85;;;;;;;;;;2048405;28;20163;-63
2022/08/05 02:45:24;;;;;;;12.20;8.75;;;;;;;;;;2047547;29;20199;-64
2022/08/05 02:46:25;;;;;;;10.27;9.13;;;;;;;;;;2048613;29;20540;-65
2022/08/05 02:47:27;;;;;;;11.30;8.60;;;;;;;;;;2048449;28;20182;-62
2022/08/05 02:48:28;;;;;;;9.52;8.45;;;;;;;;;;2048352;28;20270;-64
2022/08/05 02:49:31;;;;;;;13.60;8.07;;;;;;;;;;2056387;28;20542;-64
2022/08/05 02:50:31;;;;;;;9.88;8.77;;;;;;;;;;2056292;28;20166;-64
2022/08/05 02:51:32;;;;;;;12.52;8.00;;;;;;;;;;2049039;28;20186;-63
2022/08/05 02:52:33;;;;;;;8.88;7.97;;;;;;;;;;2049267;28;20659;-63
2022/08/05 02:53:34;;;;;;;8.93;7.43;;;;;;;;;;2048743;28;20171;-65
2022/08/05 02:54:35;;;;;;;7.85;7.03;;;;;;;;;;2055387;28;20588;-66
2022/08/05 02:55:35;;;;;;;10.18;7.85;;;;;;;;;;2056466;28;20749;-65
2022/08/05 02:56:36;;;;;;;7.78;6.97;;;;;;;;;;2049572;28;20182;-65
2022/08/05 02:57:37;;;;;;;7.90;7.10;;;;;;;;;;2049198;28;20225;-63
2022/08/05 02:58:39;;;;;;;12.35;7.50;;;;;;;;;;2049066;28;20686;-64
2022/08/05 02:59:41;;;;;;;9.60;7.00;;;;;;;;;;2046626;29;20183;-64
2022/08/05 03:00:44;;;;;;;8.70;7.25;;;;;;;;;;2049148;28;20246;-64
2022/08/05 03:01:45;;;;;;;11.10;7.13;;;;;;;;;;2049103;28;20702;-65
2022/08/05 03:02:46;;;;;;;9.52;7.18;;;;;;;;;;2056448;28;20246;-65
2022/08/05 03:03:49;;;;;;;13.77;7.72;;;;;;;;;;2048304;29;20193;-65
2022/08/05 03:04:50;;;;;;;10.63;7.28;;;;;;;;;;2047806;29;20231;-64
2022/08/05 03:05:51;;;;;;;8.88;7.68;;;;;;;;;;2056380;28;20738;-65
2022/08/05 03:06:52;;;;;;;8.13;7.32;;;;;;;;;;2056477;28;20178;-65
2022/08/05 03:07:52;;;;;;;10.18;8.38;;;;;;;;;;2048550;28;20167;-64
2022/08/05 03:08:53;;;;;;;8.50;7.43;;;;;;;;;;2056455;28;20190;-64
2022/08/05 03:09:56;;;;;;;11.57;8.73;;;;;;;;;;2056390;28;20174;-64
2022/08/05 03:10:56;;;;;;;8.80;7.90;;;;;;;;;;2048307;28;20644;-63
2022/08/05 03:11:56;;;;;;;9.55;8.15;;;;;;;;;;2048412;29;20167;-64
2022/08/05 03:12:57;;;;;;;9.07;8.18;;;;;;;;;;2049639;29;20607;-66
2022/08/05 03:13:57;;;;;;;11.00;8.80;;;;;;;;;;2048997;29;20171;-63
2022/08/05 03:14:57;;;;;;;14.05;9.63;;;;;;;;;;2049398;28;20179;-65
2022/08/05 03:15:58;;;;;;;11.75;8.68;;;;;;;;;;2049847;28;20162;-64
2022/08/05 03:16:58;;;;;;;13.20;9.10;;;;;;;;;;2049744;28;20257;-63
2022/08/05 03:17:58;;;;;;;15.93;9.52;;;;;;;;;;2049425;29;20681;-64
2022/08/05 03:19:00;;;;;;;13.15;9.23;;;;;;;;;;2048992;29;20191;-64
2022/08/05 03:20:00;;;;;;;11.32;9.27;;;;;;;;;;2049894;28;20179;-65
2022/08/05 03:21:00;;;;;;;11.82;8.80;;;;;;;;;;2048944;28;20219;-65
2022/08/05 03:22:01;;;;;;;12.95;10.15;;;;;;;;;;2049153;29;20245;-66
2022/08/05 03:23:03;;;;;;;10.80;8.85;;;;;;;;;;2049936;29;20163;-64
2022/08/05 03:24:03;;;;;;;10.93;9.82;;;;;;;;;;2048513;28;20183;-63
2022/08/05 03:25:05;;;;;;;12.13;9.15;;;;;;;;;;2048764;29;20171;-66
2022/08/05 03:26:05;;;;;;;12.20;9.73;;;;;;;;;;2049443;28;20195;-63
2022/08/05 03:27:06;;;;;;;11.85;8.93;;;;;;;;;;2049234;28;20176;-64
2022/08/05 03:28:07;;;;;;;12.48;9.20;;;;;;;;;;2049302;28;20304;-63
2022/08/05 03:29:07;;;;;;;10.63;9.50;;;;;;;;;;2049350;28;20171;-64
2022/08/05 03:30:08;;;;;;;11.98;10.63;;;;;;;;;;2049286;28;20596;-65
2022/08/05 03:31:08;;;;;;;11.50;9.68;;;;;;;;;;2049175;28;20190;-64
2022/08/05 03:32:09;;;;;;;10.13;9.15;;;;;;;;;;2049210;28;20166;-65
2022/08/05 03:33:10;;;;;;;12.43;9.38;;;;;;;;;;2049051;28;20178;-64
2022/08/05 03:34:10;;;;;;;12.57;10.15;;;;;;;;;;2048290;28;20187;-63
2022/08/05 03:35:12;;;;;;;10.93;9.82;;;;;;;;;;2048916;28;20174;-64
2022/08/05 03:36:12;;;;;;;12.18;10.48;;;;;;;;;;2049077;28;20171;-65
2022/08/05 03:37:12;;;;;;;11.00;9.23;;;;;;;;;;2048898;28;20230;-65
2022/08/05 03:38:13;;;;;;;13.43;9.18;;;;;;;;;;2049143;28;20167;-65
2022/08/05 03:39:13;;;;;;;11.73;9.07;;;;;;;;;;2048990;28;20214;-64
2022/08/05 03:40:14;;;;;;;12.63;9.63;;;;;;;;;;2049081;28;20551;-65
2022/08/05 03:41:14;;;;;;;10.98;9.27;;;;;;;;;;2048917;28;20171;-63
2022/08/05 03:42:15;;;;;;;12.55;9.77;;;;;;;;;;2049031;28;20262;-65
2022/08/05 03:43:15;;;;;;;10.80;9.07;;;;;;;;;;2048967;28;20171;-64
2022/08/05 03:44:16;;;;;;;12.85;10.75;;;;;;;;;;2048200;28;20259;-65
2022/08/05 03:45:16;;;;;;;12.70;9.32;;;;;;;;;;2047087;28;20203;-65
2022/08/05 03:46:16;;;;;;;13.77;11.18;;;;;;;;;;2049163;28;20167;-65
2022/08/05 03:47:17;;;;;;;11.13;9.93;;;;;;;;;;2048901;28;20218;-64
2022/08/05 03:48:18;;;;;;;11.27;10.07;;;;;;;;;;2048929;28;20181;-64
2022/08/05 03:49:19;;;;;;;11.45;9.57;;;;;;;;;;2048936;28;20175;-65
2022/08/05 03:50:19;;;;;;;11.68;10.25;;;;;;;;;;2049030;28;20679;-66
2022/08/05 03:51:23;;;;;;;13.52;10.02;;;;;;;;;;2048925;28;20706;-64
2022/08/05 03:52:32;;;;;;;12.20;10.10;;;;;;;;;;2049080;29;20254;-65
2022/08/05 03:54:01;;;;;;;11.55;10.35;;;;;;;;;;2048998;28;20191;-64
2022/08/05 03:55:05;;;;;;;13.00;9.95;;;;;;;;;;2044037;29;20189;-64
2022/08/05 03:56:43;;;;;;;13.18;10.68;;;;;;;;;;2048619;29;20183;-64
2022/08/05 03:57:43;;;;;;;13.80;9.98;;;;;;;;;;2044961;29;20915;-65
2022/08/05 03:58:45;;;;;;;14.02;9.55;;;;;;;;;;2048048;29;20202;-65
2022/08/05 03:59:49;;;;;;;12.02;10.35;;;;;;;;;;2048099;28;20171;-64
2022/08/05 04:00:51;;;;;;;13.27;10.75;;;;;;;;;;2056205;28;20571;-64
2022/08/05 04:01:52;;;;;;;12.38;10.02;;;;;;;;;;2055946;28;20261;-64
2022/08/05 04:02:53;;;;;;;13.07;9.60;;;;;;;;;;2047995;29;20663;-65
2022/08/05 04:03:54;;;;;;;12.57;10.68;;;;;;;;;;2047857;29;20238;-65
2022/08/05 04:04:56;;;;;;;11.95;9.90;;;;;;;;;;2048672;28;20185;-65
2022/08/05 04:05:56;;;;;;;12.68;11.00;;;;;;;;;;2057865;28;20178;-65
2022/08/05 04:06:58;;;;;;;11.43;10.27;;;;;;;;;;2049970;29;20552;-63
2022/08/05 04:07:59;;;;;;;13.50;10.48;;;;;;;;;;2049707;29;20175;-63
2022/08/05 04:09:00;;;;;;;11.80;10.13;;;;;;;;;;2050521;28;20201;-64
2022/08/05 04:10:01;;;;;;;11.68;10.10;;;;;;;;;;2050378;28;20183;-63
2022/08/05 04:11:02;;;;;;;12.13;10.52;;;;;;;;;;2049804;29;20179;-63
2022/08/05 04:12:02;;;;;;;12.90;10.50;;;;;;;;;;2050204;29;20198;-64
2022/08/05 04:13:03;;;;;;;11.55;10.27;;;;;;;;;;2050651;28;20178;-65
2022/08/05 04:14:03;;;;;;;14.93;10.88;;;;;;;;;;2049680;28;20660;-64
2022/08/05 04:15:04;;;;;;;13.38;10.18;;;;;;;;;;2050335;28;20166;-64
2022/08/05 04:16:05;;;;;;;14.50;9.68;;;;;;;;;;2050437;28;20233;-64
2022/08/05 04:17:07;;;;;;;14.18;10.57;;;;;;;;;;2050464;28;20183;-65
2022/08/05 04:18:07;;;;;;;11.57;10.40;;;;;;;;;;2050351;28;20159;-64
2022/08/05 04:19:10;;;;;;;11.90;10.45;;;;;;;;;;2050210;28;20195;-66
2022/08/05 04:20:20;;;;;;;12.70;9.75;;;;;;;;;;2050560;28;20791;-65
2022/08/05 04:21:21;;;;;;;13.15;10.13;;;;;;;;;;2049866;29;20543;-64
2022/08/05 04:22:21;;;;;;;13.13;9.80;;;;;;;;;;2049778;29;20274;-65
2022/08/05 04:23:23;;;;;;;10.57;9.23;;;;;;;;;;2050254;28;20266;-65
2022/08/05 04:24:24;;;;;;;13.52;10.20;;;;;;;;;;2049495;28;20234;-64
2022/08/05 04:25:24;;;;;;;13.23;10.82;;;;;;;;;;2050383;28;20171;-65
2022/08/05 04:26:25;;;;;;;10.60;9.52;;;;;;;;;;2050467;28;20229;-64
2022/08/05 04:27:25;;;;;;;12.02;10.20;;;;;;;;;;2050319;28;20187;-65
2022/08/05 04:28:25;;;;;;;10.70;9.65;;;;;;;;;;2050482;28;20227;-65
2022/08/05 04:29:26;;;;;;;10.85;9.73;;;;;;;;;;2050327;28;20175;-65
2022/08/05 04:30:26;;;;;;;13.63;10.98;;;;;;;;;;2050403;28;20177;-65
2022/08/05 04:31:26;;;;;;;11.50;10.23;;;;;;;;;;2050365;28;20538;-64
2022/08/05 04:32:27;;;;;;;11.68;9.43;;;;;;;;;;2050375;28;20215;-65
2022/08/05 04:33:27;;;;;;;10.80;9.73;;;;;;;;;;2050235;28;20171;-65
2022/08/05 04:34:27;;;;;;;10.23;9.15;;;;;;;;;;2049572;28;20609;-64
2022/08/05 04:35:28;;;;;;;13.02;10.18;;;;;;;;;;2050380;28;20193;-65
2022/08/05 04:36:28;;;;;;;11.88;9.80;;;;;;;;;;2050316;28;20179;-64
2022/08/05 04:37:28;;;;;;;13.90;10.07;;;;;;;;;;2050368;28;20261;-65
2022/08/05 04:38:29;;;;;;;11.05;9.95;;;;;;;;;;2050366;28;20258;-65
2022/08/05 04:39:30;;;;;;;11.73;9.55;;;;;;;;;;2050244;28;20179;-65
2022/08/05 04:40:34;;;;;;;15.00;10.88;;;;;;;;;;2050426;28;20187;-65
2022/08/05 04:41:34;;;;;;;10.55;9.48;;;;;;;;;;2050250;28;20191;-64
2022/08/05 04:42:34;;;;;;;12.43;8.88;;;;;;;;;;2050378;28;20171;-66
2022/08/05 04:43:35;;;;;;;13.00;8.98;;;;;;;;;;2050137;28;20203;-65
2022/08/05 04:44:35;;;;;;;14.45;9.52;;;;;;;;;;2049309;28;20237;-66
2022/08/05 04:45:36;;;;;;;9.73;8.73;;;;;;;;;;2048405;28;20229;-65
2022/08/05 04:46:37;;;;;;;10.60;9.48;;;;;;;;;;2049675;28;20191;-66
2022/08/05 04:47:37;;;;;;;13.02;9.95;;;;;;;;;;2049621;29;20179;-65
2022/08/05 04:48:37;;;;;;;11.93;9.35;;;;;;;;;;2050138;28;20285;-66
2022/08/05 04:49:38;;;;;;;11.27;9.45;;;;;;;;;;2050154;28;20344;-65
2022/08/05 04:50:46;;;;;;;9.55;8.55;;;;;;;;;;2050200;28;20183;-65
2022/08/05 04:51:46;;;;;;;12.63;9.52;;;;;;;;;;2050182;28;20166;-65
2022/08/05 04:52:46;;;;;;;10.88;9.38;;;;;;;;;;2050199;28;20187;-64
2022/08/05 04:53:46;;;;;;;13.13;9.65;;;;;;;;;;2050036;28;20171;-63
2022/08/05 04:54:47;;;;;;;12.15;10.35;;;;;;;;;;2049752;28;20327;-65
2022/08/05 04:55:47;;;;;;;11.68;9.57;;;;;;;;;;2050263;29;20719;-64
2022/08/05 04:56:47;;;;;;;12.30;9.32;;;;;;;;;;2050299;28;20186;-64
2022/08/05 04:57:48;;;;;;;11.40;10.30;;;;;;;;;;2050227;28;20242;-64
2022/08/05 04:58:48;;;;;;;11.23;10.05;;;;;;;;;;2049480;28;20269;-63
2022/08/05 04:59:48;;;;;;;13.02;11.43;;;;;;;;;;2049519;29;20190;-64
2022/08/05 05:00:49;;;;;;;13.32;10.55;;;;;;;;;;2050125;29;20573;-64
2022/08/05 05:01:50;;;;;;;12.50;10.60;;;;;;;;;;2050015;28;20664;-65
2022/08/05 05:02:50;;;;;;;12.45;11.15;;;;;;;;;;2049375;29;20171;-63
2022/08/05 05:03:51;;;;;;;13.73;12.18;;;;;;;;;;2049388;29;20576;-65
2022/08/05 05:04:52;;;;;;;13.45;10.88;;;;;;;;;;2048963;29;20202;-64
2022/08/05 05:05:52;;;;;;;14.70;10.93;;;;;;;;;;2049416;29;20159;-65
2022/08/05 05:06:52;;;;;;;17.35;11.05;;;;;;;;;;2050141;29;20596;-63
2022/08/05 05:07:54;;;;;;;14.82;11.13;;;;;;;;;;2050014;29;20714;-63
2022/08/05 05:08:54;;;;;;;11.48;9.95;;;;;;;;;;2050138;28;20675;-63
2022/08/05 05:09:54;;;;;;;13.77;10.88;;;;;;;;;;2050063;28;20199;-64
2022/08/05 05:10:55;;;;;;;14.40;10.40;;;;;;;;;;2049406;29;20179;-63
2022/08/05 05:11:55;;;;;;;12.98;10.85;;;;;;;;;;2049497;29;20182;-64
2022/08/05 05:12:56;;;;;;;11.98;10.60;;;;;;;;;;2050106;29;20253;-63
2022/08/05 05:13:56;;;;;;;13.20;11.32;;;;;;;;;;2049668;29;20175;-61
2022/08/05 05:14:57;;;;;;;13.05;10.80;;;;;;;;;;2049530;28;20686;-64
2022/08/05 05:15:57;;;;;;;15.65;11.90;;;;;;;;;;2050128;28;20186;-63
2022/08/05 05:17:01;;;;;;;11.48;10.27;;;;;;;;;;2049265;28;20168;-64
2022/08/05 05:18:01;;;;;;;14.27;11.00;;;;;;;;;;2050105;28;20187;-63
2022/08/05 05:19:01;;;;;;;20.73;11.70;;;;;;;;;;2049738;28;20198;-64
2022/08/05 05:20:02;;;;;;;14.25;12.70;;;;;;;;;;2049382;29;20246;-63
2022/08/05 05:21:03;;;;;;;13.30;11.68;;;;;;;;;;2049126;29;20179;-63
2022/08/05 05:22:03;;;;;;;13.85;11.60;;;;;;;;;;2049914;28;20304;-65
2022/08/05 05:23:03;;;;;;;14.60;12.20;;;;;;;;;;2049955;28;20182;-63
2022/08/05 05:24:04;;;;;;;16.75;10.85;;;;;;;;;;2048381;29;20222;-64
2022/08/05 05:25:04;;;;;;;11.85;10.63;;;;;;;;;;2049391;29;20196;-64
2022/08/05 05:26:05;;;;;;;13.10;10.93;;;;;;;;;;2049934;28;20700;-64
2022/08/05 05:27:05;;;;;;;14.88;11.45;;;;;;;;;;2049299;29;20218;-64
2022/08/05 05:28:05;;;;;;;14.98;11.73;;;;;;;;;;2049297;28;20171;-64
2022/08/05 05:29:06;;;;;;;15.05;12.90;;;;;;;;;;2057129;28;20243;-64
2022/08/05 05:30:06;;;;;;;17.45;12.85;;;;;;;;;;2057411;28;20172;-64
2022/08/05 05:31:07;;;;;;;14.82;12.05;;;;;;;;;;2049894;28;20162;-64
2022/08/05 05:32:07;;;;;;;13.90;12.38;;;;;;;;;;2049191;29;20187;-64
2022/08/05 05:33:07;;;;;;;16.33;12.18;;;;;;;;;;2041298;29;20188;-64
2022/08/05 05:34:08;;;;;;;14.93;12.02;;;;;;;;;;2048283;29;20266;-63
2022/08/05 05:35:08;;;;;;;18.55;11.60;;;;;;;;;;2057183;28;20173;-64
2022/08/05 05:36:08;;;;;;;17.17;13.25;;;;;;;;;;2049911;28;20218;-64
2022/08/05 05:37:11;;;;;;;14.18;12.77;;;;;;;;;;2049823;29;20170;-63
2022/08/05 05:38:11;;;;;;;14.20;12.57;;;;;;;;;;2049771;28;20186;-63
2022/08/05 05:39:11;;;;;;;14.48;12.30;;;;;;;;;;2049737;29;20656;-63
2022/08/05 05:40:13;;;;;;;14.02;12.57;;;;;;;;;;2049954;29;20675;-63
2022/08/05 05:41:13;;;;;;;14.05;12.65;;;;;;;;;;2049728;29;20179;-63
2022/08/05 05:42:14;;;;;;;16.25;12.60;;;;;;;;;;2049867;29;20324;-64
2022/08/05 05:43:14;;;;;;;14.55;13.05;;;;;;;;;;2049601;29;20544;-64
2022/08/05 05:44:14;;;;;;;14.98;13.35;;;;;;;;;;2047870;29;20652;-64
2022/08/05 05:45:15;;;;;;;15.95;13.52;;;;;;;;;;2049051;29;20241;-64
2022/08/05 05:46:15;;;;;;;15.82;13.13;;;;;;;;;;2049425;28;20183;-63
2022/08/05 05:47:16;;;;;;;15.82;13.82;;;;;;;;;;2049669;28;20261;-64
2022/08/05 05:48:16;;;;;;;15.38;12.82;;;;;;;;;;2048830;28;20660;-64
2022/08/05 05:49:16;;;;;;;17.55;12.63;;;;;;;;;;2064072;23;20276;-64
2022/08/05 05:50:17;;;;;;;14.38;12.77;;;;;;;;;;2059788;28;20914;-63
2022/08/05 05:51:19;;;;;;;13.73;12.43;;;;;;;;;;2060814;28;20534;-64
2022/08/05 05:52:22;;;;;;;13.93;12.60;;;;;;;;;;2059161;28;20178;-64
2022/08/05 05:53:22;;;;;;;14.27;12.82;;;;;;;;;;2058979;28;20170;-64
2022/08/05 05:54:23;;;;;;;14.50;12.95;;;;;;;;;;2056775;28;20603;-65
2022/08/05 05:55:23;;;;;;;14.07;12.63;;;;;;;;;;2057376;28;20538;-63
2022/08/05 05:56:23;;;;;;;12.65;11.02;;;;;;;;;;2055436;28;20224;-63
2022/08/05 05:57:24;;;;;;;12.43;11.23;;;;;;;;;;2058620;28;20170;-63
2022/08/05 05:58:24;;;;;;;13.85;12.45;;;;;;;;;;2061330;28;20170;-63
2022/08/05 05:59:24;;;;;;;12.52;11.13;;;;;;;;;;2056927;28;20289;-59
2022/08/05 06:00:25;;;;;;;12.05;10.77;;;;;;;;;;2048973;29;20183;-62
2022/08/05 06:01:25;;;;;;;13.85;11.68;;;;;;;;;;2057152;28;20175;-64
2022/08/05 06:02:28;;;;;;;13.13;11.93;;;;;;;;;;2057440;28;20191;-63
2022/08/05 06:03:29;;;;;;;14.02;12.65;;;;;;;;;;2057466;28;20198;-62
2022/08/05 06:04:29;;;;;;;15.25;12.88;;;;;;;;;;2056743;28;20170;-61